Главная страница
METAR-TAF:

METAR-TAF

Аэропорты :

Хорремабад, Иран

широта: 33-26-11N, долгота: 048-17-09E, высота над уровнем моря: 1155 м

Текущие метеонаблюдения

Эта сводка был подготовлена 3 часа и 5 минут назад, в 00:00 UTC
Штиль
Температура 8°C
Влажность 93%
Давление 1021 hPa
Видимость 10 км и более
Отдельные облака на высоте 4000 фута

METAR: OICK 270000Z 00000KT 9999 SCT040 08/07 Q1021

Время: 06:35 (03:05 UTC)


TAF: отсутствует

Метеонаблюдения и прогнозы для более 4000 аэропортов (сводки METAR и TAF).

Имеющиеся станции представлены на карте желтыми и красными точками.

Чтобы увидеть название станции, наведите на нее мышь.

Затем щелкните, чтобы увидеть метеонаблюдения и метеопрогнозы.

Управление картой: чтобы увеличить масштаб, щелкните зеленые кнопки с черным крестиком; чтобы уменьшить масштаб, щелкните зеленую кнопку с тире; для просмотра соседних карт щелкайте зеленые стрелки.


METAR-TAF: